Time;durP1;ratioP1;P1;durP2;ratioP2;P2;SDS_P1;SDS_P2;PMS_P1;PMS_P2;Temp;Humidity;BMP_temperature;BMP_pressure;BME280_temperature;BME280_humidity;BME280_pressure;Samples;Min_cycle;Max_cycle;Signal;HPM_P1;HPM_P2
2022/09/03 08:01:46;;;;;;;4.28;2.95;;;;;;;20.05;45.89;100909.72;5255153;28;20898;-69
2022/09/03 08:04:17;;;;;;;3.65;2.08;;;;;;;20.18;45.55;100911.34;5258366;28;20040;-70
2022/09/03 08:06:48;;;;;;;4.85;1.90;;;;;;;20.26;45.25;100915.22;5225746;28;20452;-71
2022/09/03 08:09:23;;;;;;;6.55;2.30;;;;;;;20.51;45.00;100912.38;5258932;28;20061;-70
2022/09/03 08:11:54;;;;;;;6.28;2.20;;;;;;;20.52;45.75;100911.19;5246550;28;20017;-71
2022/09/03 08:14:25;;;;;;;4.22;1.73;;;;;;;20.67;44.54;100907.66;5221516;28;20388;-68
2022/09/03 08:16:59;;;;;;;2.97;1.73;;;;;;;20.74;44.76;100907.88;5231399;28;20029;-69
2022/09/03 08:19:31;;;;;;;2.78;1.85;;;;;;;20.84;44.37;100907.38;5224296;28;20436;-69
2022/09/03 08:22:02;;;;;;;4.28;1.70;;;;;;;21.03;44.19;100914.34;5228976;28;20021;-70
2022/09/03 08:24:34;;;;;;;4.10;1.70;;;;;;;20.83;43.88;100908.53;5244391;28;20029;-69
2022/09/03 08:27:05;;;;;;;5.15;2.00;;;;;;;20.82;43.97;100915.34;5233844;28;20033;-71
2022/09/03 08:29:40;;;;;;;3.55;2.10;;;;;;;21.14;43.66;100921.09;5247582;28;20017;-72
2022/09/03 08:32:12;;;;;;;5.13;2.17;;;;;;;21.26;42.86;100923.03;5233603;28;20112;-69
2022/09/03 08:34:43;;;;;;;4.05;1.90;;;;;;;21.34;43.19;100918.41;5221629;28;20457;-70
2022/09/03 08:37:14;;;;;;;4.13;1.80;;;;;;;21.24;43.11;100917.78;5222068;28;20026;-68
2022/09/03 08:39:45;;;;;;;4.15;2.00;;;;;;;21.38;42.70;100919.34;5239013;28;20026;-70
2022/09/03 08:42:47;;;;;;;2.80;1.50;;;;;;;21.44;43.27;100923.53;5254953;28;20083;-69
2022/09/03 08:45:20;;;;;;;2.30;1.63;;;;;;;21.65;42.60;100934.56;5248882;28;20349;-69
2022/09/03 08:48:06;;;;;;;10.02;2.13;;;;;;;21.70;42.41;100923.88;5258577;28;20021;-69
2022/09/03 08:50:39;;;;;;;;;;;;;;;21.73;42.52;100929.94;5250980;28;20097;-70
2022/09/03 08:53:27;;;;;;;4.68;1.95;;;;;;;21.78;42.31;100926.84;5228414;28;19913;-70
2022/09/03 08:56:14;;;;;;;13.20;11.65;;;;;;;21.81;42.33;100926.94;5242531;28;20357;-70
2022/09/03 08:58:45;;;;;;;4.97;2.05;;;;;;;21.94;42.38;100919.22;5240855;28;20096;-70
2022/09/03 09:01:38;;;;;;;12.23;3.78;;;;;;;21.91;42.32;100922.78;5235449;28;20050;-74
2022/09/03 09:04:18;;;;;;;4.65;2.00;;;;;;;22.06;42.22;100921.94;5238240;28;20562;-70
2022/09/03 09:06:59;;;;;;;5.15;1.83;;;;;;;22.07;41.95;100917.91;5227183;28;20498;-71
2022/09/03 09:09:59;;;;;;;3.10;1.60;;;;;;;22.02;42.17;100926.66;5221469;28;20026;-69
2022/09/03 09:13:02;;;;;;;6.47;3.10;;;;;;;22.20;41.49;100929.13;5219600;28;20023;-69
2022/09/03 09:15:51;;;;;;;7.75;2.38;;;;;;;22.27;41.52;100921.66;5207960;28;20358;-70
2022/09/03 09:18:59;;;;;;;5.85;2.50;;;;;;;22.25;41.47;100928.84;5239851;28;20053;-70
2022/09/03 09:21:44;;;;;;;3.78;1.65;;;;;;;22.23;41.29;100936.88;5240630;28;20044;-72
2022/09/03 09:24:25;;;;;;;5.68;2.33;;;;;;;22.32;41.29;100926.22;5238495;28;20025;-70
2022/09/03 09:26:59;;;;;;;3.33;2.15;;;;;;;22.44;40.67;100930.91;5224907;28;20384;-69
2022/09/03 09:29:37;;;;;;;6.18;2.40;;;;;;;22.38;40.88;100932.38;5243678;28;20036;-71
2022/09/03 09:32:11;;;;;;;4.72;1.95;;;;;;;22.48;41.04;100921.31;5232252;28;20109;-71
2022/09/03 09:34:43;;;;;;;4.00;1.80;;;;;;;22.54;40.39;100930.31;5201994;28;20022;-71
2022/09/03 09:37:15;;;;;;;5.25;3.53;;;;;;;22.62;41.00;100926.47;5202570;28;20038;-71
2022/09/03 09:39:59;;;;;;;6.60;1.95;;;;;;;22.56;40.16;100923.13;5202719;28;20037;-71
2022/09/03 09:42:30;;;;;;;3.05;1.60;;;;;;;22.51;41.07;100920.56;5204362;28;20480;-71
2022/09/03 09:45:10;;;;;;;4.68;2.10;;;;;;;22.68;40.53;100918.53;5223034;28;20029;-69
2022/09/03 09:47:41;;;;;;;4.47;1.73;;;;;;;22.72;40.82;100919.41;5222844;28;20030;-69
2022/09/03 09:50:20;;;;;;;7.70;3.38;;;;;;;22.84;40.72;100930.59;5214934;28;20347;-71
2022/09/03 09:53:13;;;;;;;3.70;2.50;;;;;;;22.81;39.49;100931.31;5202510;28;20381;-69
2022/09/03 09:55:53;;;;;;;5.07;1.80;;;;;;;22.85;40.05;100931.41;5209600;28;20029;-69
2022/09/03 09:58:29;;;;;;;7.07;2.30;;;;;;;22.94;39.34;100927.16;5222467;28;20021;-69
2022/09/03 10:01:22;;;;;;;3.63;2.00;;;;;;;22.93;39.95;100934.03;5205647;28;20053;-68
2022/09/03 10:03:59;;;;;;;6.30;2.67;;;;;;;23.04;40.16;100933.44;5208236;28;20153;-69
2022/09/03 10:09:23;;;;;;;5.45;2.17;;;;;;;23.38;38.94;100932.50;5223869;28;20425;-70
2022/09/03 10:12:24;;;;;;;4.65;2.28;;;;;;;23.37;39.21;100921.56;5236576;28;20488;-69
2022/09/03 10:15:02;;;;;;;2.70;1.95;;;;;;;23.36;38.99;100922.75;5213699;28;20061;-70
2022/09/03 10:17:52;;;;;;;6.53;4.28;;;;;;;23.38;38.67;100911.88;5207254;28;20477;-70
2022/09/03 10:21:05;;;;;;;8.38;2.80;;;;;;;23.43;38.95;100911.56;5227808;28;20033;-70
2022/09/03 10:23:59;;;;;;;5.70;2.30;;;;;;;23.45;39.10;100912.03;5215193;28;20038;-68
2022/09/03 10:26:31;;;;;;;6.32;2.42;;;;;;;23.50;38.70;100908.06;5222114;28;20057;-69
2022/09/03 10:29:05;;;;;;;5.82;2.63;;;;;;;23.55;38.64;100910.59;5220585;28;20061;-69
2022/09/03 10:32:03;;;;;;;4.63;3.15;;;;;;;23.59;38.63;100911.44;5205788;28;20040;-69
2022/09/03 10:34:41;;;;;;;6.95;2.92;;;;;;;23.67;38.47;100910.38;5212673;28;20029;-69
2022/09/03 10:37:24;;;;;;;2.58;1.90;;;;;;;23.63;38.32;100904.66;5221413;28;20133;-70
2022/09/03 10:40:09;;;;;;;7.85;2.10;;;;;;;23.73;37.76;100910.94;5202874;28;20041;-70
2022/09/03 10:42:46;;;;;;;6.35;3.15;;;;;;;23.82;37.83;100908.66;5242090;28;20068;-69
2022/09/03 10:45:31;;;;;;;8.15;2.60;;;;;;;23.84;37.52;100907.06;5233057;28;20097;-70
2022/09/03 10:48:23;;;;;;;6.95;4.32;;;;;;;23.85;38.04;100907.88;5220148;28;20488;-71
2022/09/03 10:51:06;;;;;;;3.25;2.03;;;;;;;23.91;38.19;100911.22;5217354;28;20033;-69
2022/09/03 10:54:14;;;;;;;3.30;2.33;;;;;;;23.99;37.88;100905.28;5199479;28;20027;-69
2022/09/03 10:57:11;;;;;;;3.63;2.22;;;;;;;23.99;38.42;100912.97;5235855;28;20069;-71
2022/09/03 11:00:00;;;;;;;2.42;1.90;;;;;;;24.01;38.57;100911.41;5221006;28;20053;-71
2022/09/03 11:02:36;;;;;;;3.92;1.90;;;;;;;24.04;37.62;100901.31;5222954;28;20060;-72
2022/09/03 11:05:22;;;;;;;3.50;1.60;;;;;;;24.11;37.46;100897.78;5210075;28;20034;-69
2022/09/03 11:08:10;;;;;;;3.25;1.83;;;;;;;24.34;37.55;100900.53;5207728;28;20061;-69
2022/09/03 11:10:51;;;;;;;5.53;2.60;;;;;;;24.32;37.60;100908.63;5202827;28;20176;-69
2022/09/03 11:13:29;;;;;;;5.00;2.30;;;;;;;24.40;38.10;100899.03;5206981;28;20038;-68
2022/09/03 11:16:17;;;;;;;4.40;1.90;;;;;;;24.73;37.25;100904.78;5220606;28;20030;-68
2022/09/03 11:18:54;;;;;;;3.58;1.73;;;;;;;24.67;36.86;100906.34;5218499;28;20105;-69
2022/09/03 11:21:29;;;;;;;3.50;1.80;;;;;;;24.68;36.77;100898.63;5205152;28;20049;-69
2022/09/03 11:24:00;;;;;;;3.30;1.67;;;;;;;24.69;36.65;100895.41;5238458;28;20017;-67
2022/09/03 11:26:34;;;;;;;5.70;1.83;;;;;;;24.80;36.39;100889.88;5211947;28;20405;-69
2022/09/03 11:29:14;;;;;;;3.65;1.98;;;;;;;24.91;36.42;100892.84;5208403;28;20644;-69
2022/09/03 11:32:06;;;;;;;5.03;2.38;;;;;;;24.95;36.59;100890.84;5207592;28;20184;-68
2022/09/03 11:34:51;;;;;;;1.77;1.65;;;;;;;25.00;36.47;100896.19;5214392;28;20061;-69
2022/09/03 11:37:25;;;;;;;3.85;1.63;;;;;;;25.06;36.05;100888.97;5220055;28;20372;-68
2022/09/03 11:40:12;;;;;;;7.43;4.80;;;;;;;25.14;36.20;100889.88;5241620;28;20108;-69
2022/09/03 11:42:47;;;;;;;5.43;2.47;;;;;;;25.08;36.25;100883.75;5216657;28;20036;-69
2022/09/03 11:45:26;;;;;;;10.55;5.50;;;;;;;25.16;36.15;100887.50;5218901;28;20054;-69
2022/09/03 11:47:58;;;;;;;4.35;1.85;;;;;;;25.07;35.92;100886.94;5215190;28;20030;-68
2022/09/03 11:50:33;;;;;;;25.77;23.00;;;;;;;25.20;36.01;100881.84;5205326;28;20084;-68
2022/09/03 11:53:23;;;;;;;;;;;;;;;25.30;36.04;100886.81;5220815;28;20022;-68
2022/09/03 11:56:00;;;;;;;7.15;5.07;;;;;;;25.41;35.66;100884.91;5214416;28;19918;-69
2022/09/03 11:58:35;;;;;;;5.20;4.00;;;;;;;25.36;36.18;100882.41;5207290;28;20504;-69
2022/09/03 12:01:14;;;;;;;4.63;2.08;;;;;;;25.39;35.86;100887.34;5199894;28;20057;-69
2022/09/03 12:03:48;;;;;;;4.95;2.30;;;;;;;25.53;35.81;100887.44;5208501;28;20072;-69
2022/09/03 12:06:56;;;;;;;7.60;3.33;;;;;;;25.58;35.84;100887.09;5217976;28;20129;-70
2022/09/03 12:09:43;;;;;;;5.38;3.13;;;;;;;25.70;35.79;100896.53;5214323;28;20030;-69
2022/09/03 12:12:56;;;;;;;5.45;2.10;;;;;;;25.75;35.15;100888.47;5199901;28;20026;-70
2022/09/03 12:16:21;;;;;;;8.48;4.43;;;;;;;26.00;35.14;100893.56;5218982;28;20049;-69
2022/09/03 12:18:59;;;;;;;6.32;2.03;;;;;;;26.17;34.34;100898.56;5194477;28;20050;-70
2022/09/03 12:21:37;;;;;;;5.10;2.55;;;;;;;26.26;34.14;100892.53;5200495;28;20392;-70
2022/09/03 12:24:14;;;;;;;7.43;4.55;;;;;;;26.29;34.46;100888.91;5199262;28;20026;-70
2022/09/03 12:26:45;;;;;;;5.30;1.90;;;;;;;26.28;33.23;100886.44;5203921;28;20092;-71
2022/09/03 12:29:24;;;;;;;2.95;1.90;;;;;;;26.25;33.41;100893.72;5209148;28;20037;-70
2022/09/03 12:32:05;;;;;;;3.53;2.05;;;;;;;26.27;33.68;100885.63;5207052;28;20385;-70
2022/09/03 12:34:37;;;;;;;31.52;29.00;;;;;;;26.42;32.95;100881.66;5219151;28;20129;-70
2022/09/03 12:37:23;;;;;;;8.40;3.00;;;;;;;26.55;33.33;100887.03;5206841;28;20480;-71
2022/09/03 12:39:55;;;;;;;2.85;1.85;;;;;;;26.49;32.79;100892.28;5210512;28;20034;-70
2022/09/03 12:42:36;;;;;;;19.10;17.25;;;;;;;26.39;32.22;100882.47;5204438;28;20057;-70
2022/09/03 12:45:14;;;;;;;8.40;2.17;;;;;;;26.12;32.87;100884.72;5198017;28;20125;-70
2022/09/03 12:47:46;;;;;;;3.60;1.80;;;;;;;26.46;32.63;100884.53;5201501;28;20397;-70
2022/09/03 12:50:20;;;;;;;6.22;4.40;;;;;;;26.59;32.68;100885.03;5207795;28;20040;-70
2022/09/03 12:53:02;;;;;;;4.93;2.28;;;;;;;26.51;32.81;100877.63;5222791;28;20134;-70
2022/09/03 12:55:47;;;;;;;2.72;1.70;;;;;;;26.52;32.63;100876.44;5210314;28;20393;-70
2022/09/03 12:58:25;;;;;;;3.33;2.30;;;;;;;26.81;32.94;100881.06;5218389;28;20026;-69
2022/09/03 13:01:26;;;;;;;4.22;2.22;;;;;;;26.93;33.07;100876.25;5218351;28;20049;-70
2022/09/03 13:04:06;;;;;;;4.00;3.60;;;;;;;27.28;32.83;100878.41;5223149;28;20045;-70
2022/09/03 13:06:51;;;;;;;5.68;4.55;;;;;;;27.32;32.54;100874.31;5217863;28;20033;-70
2022/09/03 13:09:25;;;;;;;4.75;2.10;;;;;;;27.36;31.95;100882.06;5216019;28;20088;-72
2022/09/03 13:11:58;;;;;;;7.38;2.00;;;;;;;27.29;31.65;100872.28;5224465;28;20076;-72
2022/09/03 13:14:40;;;;;;;4.03;2.00;;;;;;;27.51;32.30;100870.28;5219170;28;20032;-71
2022/09/03 13:17:36;;;;;;;5.13;1.90;;;;;;;27.47;31.68;100875.16;5210981;28;20113;-71
2022/09/03 13:20:28;;;;;;;11.02;8.57;;;;;;;27.52;31.72;100868.25;5222669;28;20037;-73
2022/09/03 13:23:24;;;;;;;3.20;2.05;;;;;;;27.51;31.82;100872.34;5206779;28;20054;-74
2022/09/03 13:26:17;;;;;;;5.45;2.20;;;;;;;27.58;31.17;100860.91;5214064;28;20509;-72
2022/09/03 13:28:56;;;;;;;2.30;2.05;;;;;;;27.58;31.39;100869.47;5222578;28;20109;-72
2022/09/03 13:31:45;;;;;;;3.65;2.13;;;;;;;27.80;31.39;100856.03;5222549;28;20113;-71
2022/09/03 13:34:25;;;;;;;4.22;2.10;;;;;;;27.95;31.09;100852.00;5215077;28;20037;-71
2022/09/03 13:37:24;;;;;;;5.45;1.90;;;;;;;28.07;31.05;100858.47;5242919;28;20021;-71
2022/09/03 13:40:14;;;;;;;4.18;2.97;;;;;;;28.19;30.22;100858.06;5212053;28;20039;-71
2022/09/03 13:42:56;;;;;;;3.28;2.00;;;;;;;28.03;29.88;100852.81;5239867;28;20021;-72
2022/09/03 13:45:34;;;;;;;2.22;2.00;;;;;;;28.11;30.00;100860.09;5222528;28;20053;-72
2022/09/03 13:51:14;;;;;;;4.57;1.92;;;;;;;28.30;30.33;100863.72;5219620;28;20038;-75
2022/09/03 13:54:13;;;;;;;4.95;3.95;;;;;;;28.33;30.47;100857.22;5233420;28;20018;-73
2022/09/03 13:57:04;;;;;;;6.57;2.58;;;;;;;28.49;30.05;100863.31;5221971;28;20095;-74
2022/09/03 13:59:57;;;;;;;9.30;7.72;;;;;;;28.44;29.72;100862.88;5203925;28;20078;-73
2022/09/03 14:02:47;;;;;;;2.97;1.98;;;;;;;28.09;29.53;100864.59;5211825;28;20089;-73
2022/09/03 14:05:37;;;;;;;3.08;1.92;;;;;;;27.86;30.20;100862.19;5200098;28;20109;-72
2022/09/03 14:08:25;;;;;;;2.88;2.58;;;;;;;28.09;30.34;100861.75;5225838;28;20034;-72
2022/09/03 14:11:17;;;;;;;5.32;2.20;;;;;;;28.02;30.53;100859.72;5207532;28;20026;-73
2022/09/03 14:14:16;;;;;;;11.68;4.40;;;;;;;28.29;29.83;100862.13;5204059;28;20193;-72
2022/09/03 14:16:57;;;;;;;7.05;4.90;;;;;;;28.24;30.19;100863.34;5212933;28;20041;-73
2022/09/03 14:19:58;;;;;;;6.80;4.20;;;;;;;28.24;29.93;100859.69;5212556;28;20069;-73
2022/09/03 14:23:09;;;;;;;4.25;2.25;;;;;;;28.29;30.02;100864.97;5215968;28;20042;-73
2022/09/03 14:25:51;;;;;;;2.40;2.00;;;;;;;28.34;30.42;100861.69;5218045;28;20511;-73
2022/09/03 14:28:44;;;;;;;5.95;2.08;;;;;;;28.29;30.73;100865.78;5221581;28;20049;-73
2022/09/03 14:31:40;;;;;;;2.80;1.90;;;;;;;28.26;30.92;100862.94;5211483;28;20030;-72
2022/09/03 14:34:31;;;;;;;6.40;2.20;;;;;;;28.30;31.01;100866.56;5209527;28;20136;-72
2022/09/03 14:37:12;;;;;;;7.70;7.10;;;;;;;28.12;30.66;100870.31;5221140;28;20030;-72
2022/09/03 14:39:58;;;;;;;4.07;2.00;;;;;;;28.06;31.47;100863.38;5219401;28;20026;-72
2022/09/03 14:42:41;;;;;;;9.63;5.15;;;;;;;27.95;30.53;100869.09;5218719;28;20053;-72
2022/09/03 14:45:47;;;;;;;5.55;2.20;;;;;;;27.96;31.08;100855.66;5218557;28;20034;-73
2022/09/03 14:48:56;;;;;;;3.67;2.30;;;;;;;28.09;31.13;100853.19;5201947;28;20100;-73
2022/09/03 14:52:05;;;;;;;5.28;2.38;;;;;;;28.08;31.23;100854.44;5200703;28;20022;-73
2022/09/03 14:55:32;;;;;;;4.38;2.10;;;;;;;28.06;30.74;100851.97;5201560;28;20032;-72
2022/09/03 14:58:25;;;;;;;5.88;2.70;;;;;;;27.88;31.08;100851.19;5197182;28;20050;-72
2022/09/03 15:01:16;;;;;;;5.65;2.45;;;;;;;27.97;31.51;100854.44;5196529;28;20046;-72
2022/09/03 15:04:15;;;;;;;6.72;3.05;;;;;;;27.95;31.24;100845.50;5220855;28;20115;-72
2022/09/03 15:07:05;;;;;;;6.50;2.72;;;;;;;27.84;31.17;100847.53;5209040;28;20108;-75
2022/09/03 15:09:39;;;;;;;6.28;2.80;;;;;;;27.80;31.86;100846.69;5220856;28;20092;-73
2022/09/03 15:12:23;;;;;;;2.58;2.20;;;;;;;27.86;31.60;100850.78;5219445;28;20024;-75
2022/09/03 15:15:00;;;;;;;5.38;2.40;;;;;;;27.82;31.78;100849.97;5218802;28;20029;-80
2022/09/03 15:18:13;;;;;;;6.00;3.00;;;;;;;27.85;31.70;100852.00;5205865;28;20030;-78
2022/09/03 15:21:18;;;;;;;4.43;2.30;;;;;;;27.60;31.52;100852.78;5207932;28;20045;-77
2022/09/03 15:24:28;;;;;;;47.35;43.28;;;;;;;27.60;32.02;100852.78;5209324;28;20037;-77
2022/09/03 15:27:04;;;;;;;5.60;3.92;;;;;;;27.61;32.34;100853.59;5195505;28;20042;-78
2022/09/03 15:29:52;;;;;;;5.50;4.28;;;;;;;27.62;32.07;100855.25;5216760;28;20112;-77
2022/09/03 15:32:41;;;;;;;3.47;2.67;;;;;;;27.52;32.46;100854.00;5234008;28;20382;-76
2022/09/03 15:35:28;;;;;;;2.88;2.58;;;;;;;27.66;32.30;100856.88;5209639;28;20088;-70
2022/09/03 15:38:05;;;;;;;4.50;2.60;;;;;;;27.55;32.15;100858.91;5210292;28;20385;-78
2022/09/03 15:40:59;;;;;;;5.45;2.70;;;;;;;27.57;32.00;100865.00;5211915;28;20022;-79
2022/09/03 15:43:33;;;;;;;3.80;2.50;;;;;;;27.52;32.08;100860.53;5221237;28;20390;-79
2022/09/03 15:46:30;;;;;;;4.82;2.92;;;;;;;27.45;32.47;100857.66;5216611;28;20106;-79
2022/09/03 15:49:15;;;;;;;4.72;2.40;;;;;;;27.49;32.57;100861.34;5219755;28;20022;-79
2022/09/03 15:52:04;;;;;;;6.82;2.20;;;;;;;27.30;32.49;100859.69;5209182;28;20398;-77
2022/09/03 15:54:45;;;;;;;3.22;2.25;;;;;;;27.25;32.77;100865.78;5219750;28;20524;-77
2022/09/03 15:57:24;;;;;;;5.55;2.40;;;;;;;27.32;32.69;100870.66;5220278;28;20369;-77
2022/09/03 16:00:06;;;;;;;3.45;2.00;;;;;;;27.43;32.39;100859.28;5213661;28;20061;-75
2022/09/03 16:03:10;;;;;;;4.60;2.22;;;;;;;27.35;32.66;100861.31;5205589;28;20029;-77
2022/09/03 16:06:03;;;;;;;3.40;2.30;;;;;;;27.34;33.50;100858.88;5211152;28;20025;-77
2022/09/03 16:09:19;;;;;;;5.55;2.20;;;;;;;27.27;33.28;100860.47;5220346;28;20046;-78
2022/09/03 16:12:15;;;;;;;3.78;2.35;;;;;;;27.52;32.78;100862.56;5220335;28;20042;-80
2022/09/03 16:14:59;;;;;;;10.07;6.65;;;;;;;27.54;33.93;100860.13;5206868;28;20042;-79
2022/09/03 16:17:38;;;;;;;5.47;2.50;;;;;;;27.49;34.10;100864.19;5221338;28;20029;-80
2022/09/03 16:20:31;;;;;;;2.60;2.13;;;;;;;27.37;34.17;100863.75;5214056;28;20097;-79
2022/09/03 16:23:11;;;;;;;4.38;2.13;;;;;;;27.19;35.15;100867.38;5202652;28;20031;-78
2022/09/03 16:25:52;;;;;;;5.65;2.53;;;;;;;27.15;35.09;100866.56;5204112;28;20108;-77
2022/09/03 16:28:32;;;;;;;3.83;2.83;;;;;;;27.07;35.68;100870.56;5204027;28;20062;-77
2022/09/03 16:31:31;;;;;;;4.60;2.47;;;;;;;27.06;35.39;100868.97;5203772;28;20022;-78
2022/09/03 16:34:44;;;;;;;7.57;2.90;;;;;;;27.02;35.67;100876.66;5204004;28;20030;-78
2022/09/03 16:37:24;;;;;;;3.00;2.70;;;;;;;26.86;35.75;100877.81;5201445;28;20026;-78
2022/09/03 16:40:29;;;;;;;4.30;3.88;;;;;;;26.91;35.81;100879.47;5203877;28;20041;-77
2022/09/03 16:43:06;;;;;;;4.95;2.97;;;;;;;26.83;36.10;100878.63;5203916;28;20027;-76
2022/09/03 16:46:00;;;;;;;5.32;2.63;;;;;;;26.72;36.53;100883.47;5202953;28;20496;-77
2022/09/03 16:49:17;;;;;;;4.68;2.80;;;;;;;26.68;36.74;100874.91;5215322;28;20045;-77
2022/09/03 16:52:30;;;;;;;4.15;3.30;;;;;;;26.61;37.02;100874.91;5202837;28;20034;-77
2022/09/03 16:55:21;;;;;;;7.15;3.03;;;;;;;26.55;37.16;100872.81;5212404;28;20026;-78
2022/09/03 16:58:07;;;;;;;3.67;3.15;;;;;;;26.52;37.28;100873.59;5223441;28;20037;-78
2022/09/03 17:01:30;;;;;;;4.05;2.90;;;;;;;26.51;37.40;100880.47;5223329;28;20038;-78
2022/09/03 17:04:48;;;;;;;4.78;2.33;;;;;;;26.49;37.26;100885.78;5227337;28;20481;-79
2022/09/03 17:07:56;;;;;;;3.42;2.83;;;;;;;26.48;37.33;100884.13;5193202;28;20046;-79
2022/09/03 17:10:38;;;;;;;5.70;2.50;;;;;;;26.40;37.71;100886.94;5209685;28;20037;-78
2022/09/03 17:13:46;;;;;;;5.15;2.50;;;;;;;26.40;37.85;100888.97;5213703;28;20128;-78
2022/09/03 17:16:59;;;;;;;4.20;2.63;;;;;;;26.43;37.92;100888.16;5216866;28;20034;-78
2022/09/03 17:19:44;;;;;;;4.43;3.20;;;;;;;26.36;37.82;100890.97;5221292;28;20037;-79
2022/09/03 17:22:34;;;;;;;6.18;5.57;;;;;;;26.31;38.23;100897.03;5223126;28;20045;-78
2022/09/03 17:25:34;;;;;;;5.50;2.95;;;;;;;26.28;37.86;100890.13;5223360;28;20041;-79
2022/09/03 17:28:21;;;;;;;5.32;2.95;;;;;;;26.21;38.35;100901.44;5222551;28;20030;-78
2022/09/03 17:30:58;;;;;;;4.75;2.50;;;;;;;26.12;38.24;100895.28;5211404;28;20497;-78
